createdAt,value
2022-11-19T00:01:22.619Z,101203.84
2022-11-19T00:03:52.640Z,101192.06
2022-11-19T00:06:24.686Z,101205.44
2022-11-19T00:08:52.880Z,101201.00
2022-11-19T00:11:46.394Z,101212.41
2022-11-19T00:14:15.696Z,101207.66
2022-11-19T00:16:43.742Z,101213.72
2022-11-19T00:19:12.109Z,101215.16
2022-11-19T00:21:39.675Z,101211.28
2022-11-19T00:24:07.316Z,101219.00
2022-11-19T00:26:35.789Z,101214.19
2022-11-19T00:29:02.702Z,101222.13
2022-11-19T00:31:30.577Z,101218.91
2022-11-19T00:33:57.043Z,101225.19
2022-11-19T00:36:25.066Z,101232.66
2022-11-19T00:38:52.725Z,101227.91
2022-11-19T00:41:20.035Z,101223.75
2022-11-19T00:43:48.144Z,101219.31
2022-11-19T00:46:28.175Z,101228.47
2022-11-19T00:48:57.678Z,101230.81
2022-11-19T00:51:27.854Z,101228.47
2022-11-19T00:53:55.033Z,101232.19
2022-11-19T00:56:24.813Z,101231.94
2022-11-19T00:58:52.016Z,101232.34
2022-11-19T01:01:20.749Z,101240.69
2022-11-19T01:03:47.493Z,101244.78
2022-11-19T01:06:19.044Z,101248.38
2022-11-19T01:08:48.195Z,101247.72
2022-11-19T01:11:19.056Z,101241.06
2022-11-19T01:13:46.228Z,101255.41
2022-11-19T01:16:15.269Z,101252.31
2022-11-19T01:18:43.705Z,101249.59
2022-11-19T01:21:11.864Z,101249.53
2022-11-19T01:23:39.680Z,101262.44
2022-11-19T01:26:07.014Z,101259.72
2022-11-19T01:28:33.974Z,101263.63
2022-11-19T01:31:01.232Z,101259.06
2022-11-19T01:33:28.929Z,101259.75
2022-11-19T01:36:00.337Z,101252.78
2022-11-19T01:38:28.427Z,101263.63
2022-11-19T01:40:55.928Z,101256.56
2022-11-19T01:43:48.113Z,101260.56
2022-11-19T01:46:17.634Z,101266.13
2022-11-19T01:49:24.311Z,101265.03
2022-11-19T01:51:58.091Z,101261.28
2022-11-19T01:54:36.387Z,101265.09
2022-11-19T01:57:04.913Z,101265.84
2022-11-19T01:59:31.995Z,101265.69
2022-11-19T02:01:59.118Z,101268.47
2022-11-19T02:04:26.074Z,101273.41
2022-11-19T02:06:52.958Z,101284.03
2022-11-19T02:09:19.992Z,101287.22
2022-11-19T02:12:20.782Z,101280.38
2022-11-19T02:15:00.393Z,101288.34
2022-11-19T02:17:36.163Z,101287.53
2022-11-19T02:20:42.144Z,101283.69
2022-11-19T02:23:27.260Z,101296.25
2022-11-19T02:26:23.107Z,101284.81
2022-11-19T02:28:56.927Z,101295.69
2022-11-19T02:31:39.692Z,101296.28
2022-11-19T02:34:14.396Z,101297.91
2022-11-19T02:37:00.835Z,101298.06
2022-11-19T02:39:40.003Z,101301.78
2022-11-19T02:42:17.239Z,101305.19
2022-11-19T02:45:14.695Z,101303.59
2022-11-19T02:47:45.340Z,101293.75
2022-11-19T02:50:24.989Z,101300.44
2022-11-19T02:52:51.616Z,101303.22
2022-11-19T02:55:20.408Z,101305.78
2022-11-19T02:58:07.260Z,101308.31
2022-11-19T03:01:08.911Z,101315.38
2022-11-19T03:03:54.743Z,101306.34
2022-11-19T03:06:25.377Z,101314.16
2022-11-19T03:08:52.017Z,101308.03
2022-11-19T03:11:27.067Z,101321.63
2022-11-19T03:14:15.211Z,101320.28
2022-11-19T03:16:47.724Z,101317.53
2022-11-19T03:19:35.808Z,101313.53
2022-11-19T03:22:10.434Z,101310.53
2022-11-19T03:24:43.244Z,101304.59
2022-11-19T03:27:16.201Z,101307.47
2022-11-19T03:29:49.012Z,101326.88
2022-11-19T03:32:22.025Z,101322.69
2022-11-19T03:34:51.004Z,101326.16
2022-11-19T03:37:19.340Z,101333.84
2022-11-19T03:39:47.336Z,101340.19
2022-11-19T03:42:16.173Z,101331.97
2022-11-19T03:44:58.959Z,101326.31
2022-11-19T03:47:31.340Z,101331.03
2022-11-19T03:50:03.197Z,101328.19
2022-11-19T03:52:29.688Z,101339.63
2022-11-19T03:54:56.276Z,101340.28
2022-11-19T03:57:24.300Z,101337.94
2022-11-19T03:59:50.861Z,101338.28
2022-11-19T04:02:17.641Z,101345.09
2022-11-19T04:04:44.167Z,101342.31
2022-11-19T04:07:12.087Z,101353.41
2022-11-19T04:09:39.522Z,101349.59
2022-11-19T04:12:06.851Z,101356.94
2022-11-19T04:14:33.456Z,101355.00
2022-11-19T04:17:00.052Z,101351.78
2022-11-19T04:19:26.504Z,101353.88
2022-11-19T04:21:53.141Z,101346.97
2022-11-19T04:24:19.598Z,101345.28
2022-11-19T04:26:46.127Z,101345.53
2022-11-19T04:29:12.800Z,101345.84
2022-11-19T04:31:39.460Z,101350.66
2022-11-19T04:34:05.933Z,101349.59
2022-11-19T04:36:32.652Z,101353.59
2022-11-19T04:38:59.280Z,101356.88
2022-11-19T04:41:25.972Z,101357.28
2022-11-19T04:43:52.450Z,101355.91
2022-11-19T04:46:18.980Z,101350.34
2022-11-19T04:48:45.450Z,101346.81
2022-11-19T04:51:11.900Z,101351.22
2022-11-19T04:53:38.409Z,101351.41
2022-11-19T04:56:05.590Z,101346.84
2022-11-19T04:58:32.050Z,101346.13
2022-11-19T05:00:58.510Z,101348.63
2022-11-19T05:03:24.971Z,101354.06
2022-11-19T05:05:51.488Z,101357.69
2022-11-19T05:08:18.151Z,101350.69
2022-11-19T05:10:44.839Z,101356.31
2022-11-19T05:13:11.269Z,101357.81
2022-11-19T05:15:37.685Z,101352.81
2022-11-19T05:18:04.235Z,101365.91
2022-11-19T05:20:30.667Z,101366.41
2022-11-19T05:22:57.144Z,101363.72
2022-11-19T05:25:23.649Z,101363.72
2022-11-19T05:27:50.089Z,101368.75
2022-11-19T05:30:17.070Z,101361.91
2022-11-19T05:32:43.510Z,101363.53
2022-11-19T05:35:10.462Z,101370.84
2022-11-19T05:37:37.023Z,101364.66
2022-11-19T05:40:03.836Z,101368.34
2022-11-19T05:42:30.352Z,101366.94
2022-11-19T05:44:56.890Z,101367.69
2022-11-19T05:47:23.446Z,101373.19
2022-11-19T05:49:49.840Z,101361.78
2022-11-19T05:52:16.259Z,101369.66
2022-11-19T05:54:42.647Z,101365.63
2022-11-19T05:57:09.053Z,101374.94
2022-11-19T05:59:38.428Z,101370.88
2022-11-19T06:02:07.370Z,101372.44
2022-11-19T06:04:33.815Z,101377.34
2022-11-19T06:07:00.337Z,101364.59
2022-11-19T06:09:27.637Z,101366.19
2022-11-19T06:11:54.230Z,101375.41
2022-11-19T06:14:25.108Z,101372.34
2022-11-19T06:16:56.810Z,101383.72
2022-11-19T06:19:24.632Z,101383.94
2022-11-19T06:21:51.797Z,101384.16
2022-11-19T06:24:18.995Z,101387.31
2022-11-19T06:26:45.632Z,101386.75
2022-11-19T06:29:16.247Z,101387.78
2022-11-19T06:31:42.983Z,101394.91
2022-11-19T06:34:10.043Z,101387.44
2022-11-19T06:36:41.851Z,101390.84
2022-11-19T06:39:11.553Z,101393.38
2022-11-19T06:41:38.271Z,101388.78
2022-11-19T06:44:05.005Z,101393.94
2022-11-19T06:46:31.741Z,101403.66
2022-11-19T06:48:58.260Z,101390.19
2022-11-19T06:51:24.769Z,101399.84
2022-11-19T06:53:51.982Z,101399.94
2022-11-19T06:56:18.717Z,101401.38
2022-11-19T06:58:45.465Z,101402.03
2022-11-19T07:01:14.520Z,101397.53
2022-11-19T07:03:41.588Z,101394.91
2022-11-19T07:06:08.140Z,101397.19
2022-11-19T07:08:35.901Z,101411.56
2022-11-19T07:11:23.010Z,101406.88
2022-11-19T07:14:00.129Z,101416.19
2022-11-19T07:16:35.362Z,101413.75
2022-11-19T07:19:04.781Z,101409.38
2022-11-19T07:21:31.847Z,101418.56
2022-11-19T07:23:59.808Z,101415.28
2022-11-19T07:26:27.261Z,101421.66
2022-11-19T07:28:54.915Z,101424.03
2022-11-19T07:31:21.603Z,101427.88
2022-11-19T07:33:48.637Z,101426.91
2022-11-19T07:36:18.405Z,101420.75
2022-11-19T07:38:45.460Z,101423.63
2022-11-19T07:41:30.598Z,101421.81
2022-11-19T07:43:57.104Z,101415.28
2022-11-19T07:46:23.820Z,101414.28
2022-11-19T07:48:54.793Z,101419.53
2022-11-19T07:51:21.545Z,101418.59
2022-11-19T07:53:48.124Z,101420.03
2022-11-19T07:56:14.635Z,101424.31
2022-11-19T07:58:41.141Z,101414.63
2022-11-19T08:01:19.824Z,101432.00
2022-11-19T08:03:51.861Z,101426.66
2022-11-19T08:06:22.262Z,101427.31
2022-11-19T08:08:48.743Z,101428.47
2022-11-19T08:11:16.143Z,101438.41
2022-11-19T08:13:43.170Z,101435.53
2022-11-19T08:16:12.171Z,101439.47
2022-11-19T08:18:39.069Z,101447.03
2022-11-19T08:21:07.807Z,101447.00
2022-11-19T08:23:35.226Z,101451.50
2022-11-19T08:26:02.062Z,101454.31
2022-11-19T08:28:28.856Z,101451.81
2022-11-19T08:30:55.345Z,101458.06
2022-11-19T08:33:22.042Z,101449.16
2022-11-19T08:35:48.885Z,101453.94
2022-11-19T08:38:15.291Z,101454.06
2022-11-19T08:40:41.751Z,101446.50
2022-11-19T08:43:08.178Z,101457.22
2022-11-19T08:45:38.851Z,101450.03
2022-11-19T08:48:07.554Z,101450.13
2022-11-19T08:50:34.419Z,101456.13
2022-11-19T08:53:03.085Z,101447.75
2022-11-19T08:55:30.960Z,101455.81
2022-11-19T08:58:07.540Z,101439.63
2022-11-19T09:00:35.778Z,101450.69
2022-11-19T09:03:02.256Z,101447.25
2022-11-19T09:05:28.691Z,101448.66
2022-11-19T09:07:55.494Z,101437.78
2022-11-19T09:10:21.922Z,101443.44
2022-11-19T09:12:49.371Z,101437.88
2022-11-19T09:15:16.003Z,101450.22
2022-11-19T09:17:46.777Z,101449.13
2022-11-19T09:20:13.810Z,101450.50
2022-11-19T09:22:40.661Z,101454.63
2022-11-19T09:25:08.927Z,101455.44
2022-11-19T09:27:36.709Z,101447.94
2022-11-19T09:30:04.799Z,101455.56
2022-11-19T09:32:31.371Z,101454.28
2022-11-19T09:34:57.781Z,101449.91
2022-11-19T09:37:24.247Z,101448.88
2022-11-19T09:39:50.659Z,101459.19
2022-11-19T09:42:36.767Z,101452.56
2022-11-19T09:45:09.646Z,101453.81
2022-11-19T09:47:45.974Z,101458.66
2022-11-19T09:50:22.995Z,101455.75
2022-11-19T09:53:03.103Z,101456.94
2022-11-19T09:55:31.135Z,101458.72
2022-11-19T09:57:58.978Z,101455.66
2022-11-19T10:00:28.367Z,101461.41
2022-11-19T10:02:56.744Z,101461.31
2022-11-19T10:05:29.557Z,101458.00
2022-11-19T10:08:13.362Z,101471.00
2022-11-19T10:10:49.092Z,101457.09
2022-11-19T10:13:31.508Z,101466.50
2022-11-19T10:16:28.691Z,101462.56
2022-11-19T10:19:06.388Z,101456.47
2022-11-19T10:21:40.546Z,101455.72
2022-11-19T10:24:20.085Z,101449.59
2022-11-19T10:27:01.962Z,101453.38
2022-11-19T10:29:34.764Z,101457.72
2022-11-19T10:32:32.846Z,101451.00
2022-11-19T10:35:04.028Z,101444.06
2022-11-19T10:37:34.733Z,101448.72
2022-11-19T10:40:13.643Z,101446.44
2022-11-19T10:42:42.845Z,101431.50
2022-11-19T10:45:19.049Z,101440.28
2022-11-19T10:47:58.685Z,101440.56
2022-11-19T10:50:29.309Z,101434.66
2022-11-19T10:52:59.377Z,101438.44
2022-11-19T10:55:27.318Z,101437.69
2022-11-19T10:58:25.087Z,101420.53
2022-11-19T11:00:54.910Z,101417.50
2022-11-19T11:03:32.709Z,101423.53
2022-11-19T11:06:06.619Z,101410.22
2022-11-19T11:08:34.197Z,101409.41
2022-11-19T11:11:01.200Z,101409.50
2022-11-19T11:14:01.877Z,101398.22
2022-11-19T11:16:43.295Z,101401.69
2022-11-19T11:19:15.330Z,101401.72
2022-11-19T11:21:43.646Z,101397.13
2022-11-19T11:24:14.182Z,101403.66
2022-11-19T11:26:41.249Z,101395.59
2022-11-19T11:29:13.747Z,101397.91
2022-11-19T11:31:47.288Z,101385.50
2022-11-19T11:34:37.408Z,101380.56
2022-11-19T11:37:05.656Z,101382.47
2022-11-19T11:39:37.575Z,101387.81
2022-11-19T11:42:06.247Z,101371.53
2022-11-19T11:44:35.244Z,101375.72
2022-11-19T11:47:05.001Z,101373.41
2022-11-19T11:49:37.636Z,101379.78
2022-11-19T11:52:04.116Z,101376.34
2022-11-19T11:54:30.889Z,101375.66
2022-11-19T11:57:12.669Z,101379.84
2022-11-19T11:59:39.211Z,101383.28
2022-11-19T12:02:07.713Z,101377.53
2022-11-19T12:04:35.856Z,101369.53
2022-11-19T12:07:37.761Z,101369.53
2022-11-19T12:10:19.196Z,101364.34
2022-11-19T12:13:10.216Z,101370.81
2022-11-19T12:15:51.645Z,101364.38
2022-11-19T12:18:32.163Z,101362.09
2022-11-19T12:21:11.770Z,101359.81
2022-11-19T12:24:03.966Z,101370.44
2022-11-19T12:27:00.888Z,101365.16
2022-11-19T12:30:11.825Z,101360.59
2022-11-19T12:33:15.712Z,101358.72
2022-11-19T12:35:51.373Z,101355.69
2022-11-19T12:38:27.053Z,101361.00
2022-11-19T12:41:11.379Z,101355.28
2022-11-19T12:43:52.652Z,101362.91
2022-11-19T12:46:57.781Z,101352.25
2022-11-19T12:49:36.518Z,101356.81
2022-11-19T12:52:15.490Z,101356.06
2022-11-19T12:55:38.796Z,101343.53
2022-11-19T12:58:17.172Z,101346.94
2022-11-19T13:00:52.385Z,101339.34
2022-11-19T13:03:26.009Z,101340.13
2022-11-19T13:06:04.529Z,101337.06
2022-11-19T13:08:36.689Z,101335.97
2022-11-19T13:11:10.967Z,101342.00
2022-11-19T13:13:39.990Z,101333.19
2022-11-19T13:16:10.663Z,101336.25
2022-11-19T13:18:40.330Z,101332.50
2022-11-19T13:21:22.748Z,101324.53
2022-11-19T13:23:50.030Z,101331.59
2022-11-19T13:26:20.413Z,101340.53
2022-11-19T13:28:51.179Z,101341.41
2022-11-19T13:31:36.918Z,101335.41
2022-11-19T13:34:18.963Z,101334.50
2022-11-19T13:36:51.885Z,101327.72
2022-11-19T13:39:35.284Z,101327.75
2022-11-19T13:42:22.391Z,101319.03
2022-11-19T13:44:49.212Z,101318.06
2022-11-19T13:47:22.451Z,101315.75
2022-11-19T13:49:59.579Z,101314.22
2022-11-19T13:52:43.569Z,101320.22
2022-11-19T13:55:42.377Z,101315.75
2022-11-19T13:58:19.151Z,101314.97
2022-11-19T14:01:08.477Z,101318.41
2022-11-19T14:04:00.306Z,101313.50
2022-11-19T14:07:07.220Z,101307.09
2022-11-19T14:10:06.499Z,101318.09
2022-11-19T14:13:07.356Z,101317.34
2022-11-19T14:16:13.634Z,101314.28
2022-11-19T14:19:01.401Z,101313.88
2022-11-19T14:21:46.456Z,101310.47
2022-11-19T14:24:43.659Z,101298.31
2022-11-19T14:27:33.177Z,101299.88
2022-11-19T14:30:08.943Z,101295.31
2022-11-19T14:32:47.472Z,101297.19
2022-11-19T14:35:26.142Z,101294.16
2022-11-19T14:38:18.986Z,101302.00
2022-11-19T14:40:45.433Z,101300.88
2022-11-19T14:43:30.438Z,101302.00
2022-11-19T14:46:07.970Z,101307.97
2022-11-19T14:48:40.173Z,101304.94
2022-11-19T14:51:19.274Z,101291.28
2022-11-19T14:54:07.737Z,101294.25
2022-11-19T14:56:36.616Z,101288.22
2022-11-19T14:59:15.334Z,101276.38
2022-11-19T15:02:27.192Z,101273.72
2022-11-19T15:04:57.903Z,101270.66
2022-11-19T15:07:33.753Z,101268.72
2022-11-19T15:10:11.350Z,101270.97
2022-11-19T15:12:43.915Z,101285.25
2022-11-19T15:15:19.413Z,101275.72
2022-11-19T15:18:14.126Z,101278.94
2022-11-19T15:21:02.716Z,101278.06
2022-11-19T15:23:35.881Z,101272.00
2022-11-19T15:26:40.003Z,101275.53
2022-11-19T15:29:12.661Z,101275.63
2022-11-19T15:31:57.427Z,101267.38
2022-11-19T15:35:04.158Z,101265.53
2022-11-19T15:37:43.300Z,101255.66
2022-11-19T15:40:15.192Z,101255.91
2022-11-19T15:42:48.085Z,101255.22
2022-11-19T15:45:21.193Z,101262.06
2022-11-19T15:47:52.434Z,101254.63
2022-11-19T15:50:25.400Z,101252.38
2022-11-19T15:52:59.322Z,101251.56
2022-11-19T15:55:29.047Z,101246.22
2022-11-19T15:57:56.672Z,101239.38
2022-11-19T16:00:23.864Z,101243.78
2022-11-19T16:02:51.896Z,101244.47
2022-11-19T16:05:29.695Z,101240.63
2022-11-19T16:07:57.008Z,101234.50
2022-11-19T16:10:31.549Z,101229.75
2022-11-19T16:13:19.503Z,101233.38
2022-11-19T16:16:10.292Z,101238.50
2022-11-19T16:18:51.529Z,101237.69
2022-11-19T16:21:26.039Z,101242.97
2022-11-19T16:24:11.144Z,101236.50
2022-11-19T16:26:39.743Z,101240.84
2022-11-19T16:29:06.461Z,101232.72
2022-11-19T16:31:32.988Z,101235.38
2022-11-19T16:33:59.450Z,101237.69
2022-11-19T16:36:30.059Z,101223.06
2022-11-19T16:38:57.489Z,101224.72
2022-11-19T16:41:43.573Z,101224.72
2022-11-19T16:44:12.791Z,101223.28
2022-11-19T16:46:39.669Z,101225.81
2022-11-19T16:49:33.081Z,101226.44
2022-11-19T16:52:00.023Z,101224.56
2022-11-19T16:54:49.832Z,101224.41
2022-11-19T16:57:24.010Z,101218.69
2022-11-19T17:00:05.498Z,101223.78
2022-11-19T17:02:39.723Z,101220.63
2022-11-19T17:05:09.032Z,101214.16
2022-11-19T17:07:36.847Z,101220.63
2022-11-19T17:10:12.606Z,101216.53
2022-11-19T17:12:58.862Z,101212.34
2022-11-19T17:15:42.307Z,101225.09
2022-11-19T17:18:17.314Z,101217.13
2022-11-19T17:20:43.689Z,101212.03
2022-11-19T17:23:14.935Z,101210.88
2022-11-19T17:25:54.073Z,101213.28
2022-11-19T17:28:36.167Z,101206.44
2022-11-19T17:31:05.469Z,101212.78
2022-11-19T17:33:35.677Z,101209.69
2022-11-19T17:36:03.468Z,101207.41
2022-11-19T17:38:31.459Z,101209.75
2022-11-19T17:41:01.485Z,101206.97
2022-11-19T17:43:54.848Z,101219.50
2022-11-19T17:46:22.344Z,101218.38
2022-11-19T17:48:50.060Z,101219.34
2022-11-19T17:51:18.816Z,101216.31
2022-11-19T17:53:46.015Z,101220.03
2022-11-19T17:56:25.569Z,101227.53
2022-11-19T17:58:52.343Z,101230.53
2022-11-19T18:01:19.218Z,101231.91
2022-11-19T18:03:46.577Z,101235.03
2022-11-19T18:06:15.107Z,101238.84
2022-11-19T18:08:42.298Z,101241.41
2022-11-19T18:11:27.089Z,101242.06
2022-11-19T18:13:55.275Z,101240.16
2022-11-19T18:16:24.110Z,101239.31
2022-11-19T18:18:50.881Z,101241.78
2022-11-19T18:21:20.733Z,101248.19
2022-11-19T18:23:48.549Z,101250.91
2022-11-19T18:26:16.685Z,101248.09
2022-11-19T18:28:45.025Z,101241.00
2022-11-19T18:31:19.303Z,101243.06
2022-11-19T18:33:48.083Z,101241.09
2022-11-19T18:36:15.630Z,101245.63
2022-11-19T18:38:42.956Z,101230.66
2022-11-19T18:41:10.811Z,101236.38
2022-11-19T18:43:55.870Z,101238.44
2022-11-19T18:46:22.402Z,101245.59
2022-11-19T18:48:48.876Z,101240.94
2022-11-19T18:51:15.408Z,101239.38
2022-11-19T18:53:41.878Z,101241.38
2022-11-19T18:56:14.658Z,101232.94
2022-11-19T18:58:41.292Z,101237.63
2022-11-19T19:01:08.019Z,101230.69
2022-11-19T19:03:34.951Z,101231.38
2022-11-19T19:06:02.773Z,101229.22
2022-11-19T19:08:30.394Z,101232.63
2022-11-19T19:11:17.651Z,101235.03
2022-11-19T19:13:45.294Z,101230.97
2022-11-19T19:16:12.503Z,101232.56
2022-11-19T19:18:39.425Z,101234.47
2022-11-19T19:21:13.734Z,101232.25
2022-11-19T19:23:40.599Z,101231.25
2022-11-19T19:26:08.314Z,101227.13
2022-11-19T19:28:36.487Z,101228.22
2022-11-19T19:31:04.637Z,101213.25
2022-11-19T19:33:31.466Z,101221.47
2022-11-19T19:35:58.316Z,101233.53
2022-11-19T19:38:25.201Z,101230.19
2022-11-19T19:40:51.879Z,101236.69
2022-11-19T19:43:18.480Z,101230.41
2022-11-19T19:45:45.230Z,101218.81
2022-11-19T19:48:11.665Z,101228.34
2022-11-19T19:50:38.094Z,101229.22
2022-11-19T19:53:05.350Z,101223.94
2022-11-19T19:55:32.343Z,101214.22
2022-11-19T19:58:00.251Z,101217.41
2022-11-19T20:00:26.934Z,101221.16
2022-11-19T20:02:53.564Z,101221.16
2022-11-19T20:05:20.096Z,101209.13
2022-11-19T20:07:46.759Z,101213.00
2022-11-19T20:10:13.291Z,101221.81
2022-11-19T20:12:58.309Z,101206.38
2022-11-19T20:15:24.823Z,101214.66
2022-11-19T20:17:52.004Z,101209.47
2022-11-19T20:20:19.723Z,101210.34
2022-11-19T20:22:47.568Z,101208.22
2022-11-19T20:25:15.660Z,101208.19
2022-11-19T20:27:43.398Z,101213.53
2022-11-19T20:30:10.983Z,101206.03
2022-11-19T20:32:37.584Z,101215.66
2022-11-19T20:35:04.534Z,101210.03
2022-11-19T20:37:30.949Z,101203.19
2022-11-19T20:39:57.628Z,101198.03
2022-11-19T20:42:42.735Z,101200.28
2022-11-19T20:45:09.611Z,101203.38
2022-11-19T20:47:36.091Z,101218.50
2022-11-19T20:50:02.718Z,101207.34
2022-11-19T20:52:29.282Z,101204.09
2022-11-19T20:54:56.531Z,101198.03
2022-11-19T20:57:23.650Z,101193.88
2022-11-19T20:59:50.525Z,101198.03
2022-11-19T21:02:17.576Z,101200.28
2022-11-19T21:04:44.117Z,101194.16
2022-11-19T21:07:10.871Z,101192.75
2022-11-19T21:09:37.807Z,101188.13
2022-11-19T21:12:04.548Z,101188.22
2022-11-19T21:14:31.094Z,101185.19
2022-11-19T21:16:57.685Z,101187.19
2022-11-19T21:19:24.349Z,101182.28
2022-11-19T21:21:51.178Z,101186.44
2022-11-19T21:24:17.760Z,101171.28
2022-11-19T21:26:44.224Z,101177.34
2022-11-19T21:29:10.853Z,101175.44
2022-11-19T21:31:45.758Z,101177.63
2022-11-19T21:34:20.724Z,101190.47
2022-11-19T21:36:48.063Z,101181.84
2022-11-19T21:39:16.556Z,101179.22
2022-11-19T21:41:44.196Z,101177.72
2022-11-19T21:44:12.476Z,101177.06
2022-11-19T21:46:40.714Z,101180.06
2022-11-19T21:49:07.281Z,101177.47
2022-11-19T21:51:33.950Z,101170.06
2022-11-19T21:54:00.545Z,101176.25
2022-11-19T21:56:32.475Z,101174.59
2022-11-19T21:59:03.957Z,101181.63
2022-11-19T22:01:30.390Z,101175.59
2022-11-19T22:03:56.941Z,101182.00
2022-11-19T22:06:23.402Z,101176.19
2022-11-19T22:08:49.879Z,101164.84
2022-11-19T22:11:28.481Z,101166.41
2022-11-19T22:13:59.639Z,101160.22
2022-11-19T22:16:26.534Z,101162.19
2022-11-19T22:18:52.971Z,101160.50
2022-11-19T22:21:19.440Z,101160.13
2022-11-19T22:23:46.503Z,101170.22
2022-11-19T22:26:13.313Z,101156.53
2022-11-19T22:28:40.082Z,101149.72
2022-11-19T22:31:07.020Z,101159.25
2022-11-19T22:33:35.449Z,101148.38
2022-11-19T22:36:09.227Z,101146.47
2022-11-19T22:38:36.396Z,101160.31
2022-11-19T22:41:14.234Z,101154.44
2022-11-19T22:43:41.502Z,101149.81
2022-11-19T22:46:09.639Z,101142.94
2022-11-19T22:48:36.759Z,101151.38
2022-11-19T22:51:11.613Z,101153.56
2022-11-19T22:53:39.670Z,101155.22
2022-11-19T22:56:08.358Z,101153.75
2022-11-19T22:58:35.961Z,101155.25
2022-11-19T23:01:02.633Z,101151.09
2022-11-19T23:03:29.386Z,101157.25
2022-11-19T23:05:56.371Z,101149.22
2022-11-19T23:08:23.019Z,101153.81
2022-11-19T23:10:57.602Z,101145.41
2022-11-19T23:13:33.601Z,101146.97
2022-11-19T23:16:04.284Z,101151.53
2022-11-19T23:18:32.891Z,101142.81
2022-11-19T23:21:01.563Z,101146.19
2022-11-19T23:23:28.185Z,101143.53
2022-11-19T23:25:58.630Z,101141.25
2022-11-19T23:28:26.066Z,101128.81
2022-11-19T23:30:53.308Z,101131.81
2022-11-19T23:33:20.492Z,101139.00
2022-11-19T23:35:47.712Z,101126.56
2022-11-19T23:38:15.672Z,101131.84
2022-11-19T23:40:42.530Z,101130.75
2022-11-19T23:43:09.000Z,101131.81
2022-11-19T23:45:36.481Z,101129.19
2022-11-19T23:48:03.022Z,101123.44
2022-11-19T23:50:29.692Z,101126.56
2022-11-19T23:52:56.237Z,101122.00
2022-11-19T23:55:24.582Z,101125.16
2022-11-19T23:57:54.102Z,101117.19
